createdAt,value
2023-04-01T00:00:31.687Z,99.99
2023-04-01T00:01:31.779Z,99.99
2023-04-01T00:02:31.902Z,99.99
2023-04-01T00:03:31.724Z,99.99
2023-04-01T00:04:31.561Z,99.99
2023-04-01T00:05:31.861Z,99.99
2023-04-01T00:06:31.414Z,99.99
2023-04-01T00:07:31.615Z,99.99
2023-04-01T00:08:31.340Z,99.99
2023-04-01T00:09:31.480Z,99.99
2023-04-01T00:10:31.434Z,99.99
2023-04-01T00:11:31.190Z,99.99
2023-04-01T00:12:31.249Z,99.99
2023-04-01T00:13:31.090Z,99.99
2023-04-01T00:14:31.155Z,99.99
2023-04-01T00:15:31.295Z,99.99
2023-04-01T00:16:31.213Z,99.99
2023-04-01T00:17:30.937Z,99.99
2023-04-01T00:18:30.985Z,99.99
2023-04-01T00:19:30.808Z,99.99
2023-04-01T00:20:31.113Z,99.99
2023-04-01T00:21:30.709Z,99.99
2023-04-01T00:22:30.915Z,99.99
2023-04-01T00:23:30.618Z,99.99
2023-04-01T00:24:30.717Z,99.99
2023-04-01T00:25:30.869Z,99.99
2023-04-01T00:26:30.493Z,99.99
2023-04-01T00:27:30.427Z,99.99
2023-04-01T00:28:30.541Z,99.99
2023-04-01T00:29:30.613Z,99.99
2023-04-01T00:30:30.562Z,99.99
2023-04-01T00:31:30.300Z,99.99
2023-04-01T00:32:30.222Z,99.99
2023-04-01T00:33:30.158Z,99.99
2023-04-01T00:34:30.384Z,99.99
2023-04-01T00:35:30.342Z,99.99
2023-04-01T00:36:30.125Z,99.99
2023-04-01T00:37:29.969Z,99.99
2023-04-01T00:38:29.924Z,99.99
2023-04-01T00:39:30.116Z,99.99
2023-04-01T00:40:30.067Z,99.99
2023-04-01T00:41:30.028Z,99.99
2023-04-01T00:42:29.730Z,99.99
2023-04-01T00:43:29.836Z,99.99
2023-04-01T00:44:29.641Z,99.99
2023-04-01T00:45:29.953Z,99.99
2023-04-01T00:46:29.607Z,99.99
2023-04-01T00:47:29.712Z,99.99
2023-04-01T00:48:29.449Z,99.99
2023-04-01T00:49:29.413Z,99.99
2023-04-01T00:50:29.375Z,99.99
2023-04-01T00:51:30.557Z,99.99
2023-04-01T00:52:29.543Z,99.99
2023-04-01T00:53:29.303Z,99.99
2023-04-01T00:54:29.173Z,99.99
2023-04-01T00:55:29.140Z,99.99
2023-04-01T00:56:29.076Z,99.99
2023-04-01T00:57:29.198Z,99.99
2023-04-01T00:58:29.011Z,99.99
2023-04-01T00:59:29.341Z,99.99
2023-04-01T01:00:28.893Z,99.99
2023-04-01T01:01:28.905Z,99.99
2023-04-01T01:02:28.909Z,99.99
2023-04-01T01:03:28.961Z,99.99
2023-04-01T01:04:28.720Z,99.99
2023-04-01T01:05:29.400Z,99.99
2023-04-01T01:06:28.614Z,99.99
2023-04-01T01:07:28.558Z,99.99
2023-04-01T01:08:28.516Z,99.99
2023-04-01T01:09:28.608Z,99.99
2023-04-01T01:10:28.420Z,99.99
2023-04-01T01:11:33.564Z,99.99
2023-04-01T01:12:28.334Z,99.99
2023-04-01T01:13:28.282Z,99.99
2023-04-01T01:14:28.332Z,99.99
2023-04-01T01:15:28.214Z,99.99
2023-04-01T01:16:28.361Z,99.99
2023-04-01T01:17:28.225Z,99.99
2023-04-01T01:18:28.059Z,99.99
2023-04-01T01:19:28.003Z,99.99
2023-04-01T01:20:28.170Z,99.99
2023-04-01T01:21:27.916Z,99.99
2023-04-01T01:22:27.992Z,99.99
2023-04-01T01:23:27.831Z,99.99
2023-04-01T01:24:27.768Z,99.99
2023-04-01T01:25:27.716Z,99.99
2023-04-01T01:26:27.840Z,99.99
2023-04-01T01:27:27.629Z,99.99
2023-04-01T01:28:27.819Z,99.99
2023-04-01T01:29:27.684Z,99.99
2023-04-01T01:30:27.483Z,99.99
2023-04-01T01:31:27.484Z,99.99
2023-04-01T01:32:27.685Z,99.99
2023-04-01T01:33:27.344Z,99.99
2023-04-01T01:34:27.661Z,99.99
2023-04-01T01:35:27.248Z,99.99
2023-04-01T01:36:27.221Z,99.99
2023-04-01T01:37:27.155Z,99.99
2023-04-01T01:38:27.284Z,99.99
2023-04-01T01:39:27.064Z,99.99
2023-04-01T01:40:27.292Z,99.99
2023-04-01T01:41:26.973Z,99.99
2023-04-01T01:42:26.929Z,99.99
2023-04-01T01:43:27.102Z,99.99
2023-04-01T01:44:26.827Z,99.99
2023-04-01T01:45:26.918Z,99.99
2023-04-01T01:46:26.832Z,99.99
2023-04-01T01:47:26.974Z,99.99
2023-04-01T01:48:26.651Z,99.99
2023-04-01T01:49:26.752Z,99.99
2023-04-01T01:50:26.553Z,99.99
2023-04-01T01:51:26.757Z,99.99
2023-04-01T01:52:26.475Z,99.99
2023-04-01T01:53:26.406Z,99.99
2023-04-01T01:54:26.363Z,99.99
2023-04-01T01:55:26.618Z,99.99
2023-04-01T01:56:26.281Z,99.99
2023-04-01T01:57:26.408Z,99.99
2023-04-01T01:58:26.446Z,99.99
2023-04-01T01:59:26.130Z,99.99
2023-04-01T02:00:26.072Z,99.99
2023-04-01T02:01:26.217Z,99.99
2023-04-01T02:02:26.002Z,99.99
2023-04-01T02:03:26.024Z,99.99
2023-04-01T02:04:25.945Z,99.99
2023-04-01T02:05:25.874Z,99.99
2023-04-01T02:06:26.041Z,99.99
2023-04-01T02:07:25.747Z,99.99
2023-04-01T02:08:26.265Z,99.99
2023-04-01T02:09:25.674Z,99.99
2023-04-01T02:10:25.893Z,99.99
2023-04-01T02:11:25.568Z,99.99
2023-04-01T02:12:25.712Z,99.99
2023-04-01T02:13:25.472Z,99.99
2023-04-01T02:14:25.703Z,99.99
2023-04-01T02:15:25.376Z,99.99
2023-04-01T02:16:25.360Z,99.99
2023-04-01T02:17:25.312Z,99.99
2023-04-01T02:18:25.520Z,99.99
2023-04-01T02:19:25.181Z,99.99
2023-04-01T02:20:25.337Z,99.99
2023-04-01T02:21:25.093Z,99.99
2023-04-01T02:22:25.057Z,99.99
2023-04-01T02:23:24.998Z,99.99
2023-04-01T02:24:25.189Z,99.99
2023-04-01T02:25:24.896Z,99.99
2023-04-01T02:26:24.959Z,99.99
2023-04-01T02:27:24.807Z,99.99
2023-04-01T02:28:24.927Z,99.99
2023-04-01T02:29:24.886Z,99.99
2023-04-01T02:30:24.671Z,99.99
2023-04-01T02:31:24.830Z,99.99
2023-04-01T02:32:24.612Z,99.99
2023-04-01T02:33:24.813Z,99.99
2023-04-01T02:34:24.516Z,99.99
2023-04-01T02:35:24.620Z,99.99
2023-04-01T02:36:24.408Z,99.99
2023-04-01T02:37:24.641Z,99.99
2023-04-01T02:38:24.297Z,99.99
2023-04-01T02:39:24.243Z,99.99
2023-04-01T02:40:24.401Z,99.99
2023-04-01T02:41:24.351Z,99.99
2023-04-01T02:42:24.097Z,99.99
2023-04-01T02:43:24.165Z,99.99
2023-04-01T02:44:24.007Z,99.99
2023-04-01T02:45:23.981Z,99.99
2023-04-01T02:46:24.015Z,99.99
2023-04-01T02:47:24.244Z,99.99
2023-04-01T02:48:23.823Z,99.99
2023-04-01T02:49:23.902Z,99.99
2023-04-01T02:50:23.734Z,99.99
2023-04-01T02:51:23.984Z,99.99
2023-04-01T02:52:23.636Z,99.99
2023-04-01T02:53:23.728Z,99.99
2023-04-01T02:54:23.546Z,99.99
2023-04-01T02:55:23.762Z,99.99
2023-04-01T02:56:23.470Z,99.99
2023-04-01T02:57:23.465Z,99.99
2023-04-01T02:58:23.563Z,99.99
2023-04-01T02:59:23.305Z,99.99
2023-04-01T03:00:23.678Z,99.99
2023-04-01T03:01:23.330Z,99.99
2023-04-01T03:02:23.289Z,99.99
2023-04-01T03:03:23.182Z,99.99
2023-04-01T03:04:23.299Z,99.99
2023-04-01T03:05:23.037Z,99.99
2023-04-01T03:06:23.111Z,99.99
2023-04-01T03:07:22.935Z,99.99
2023-04-01T03:08:22.894Z,99.99
2023-04-01T03:09:22.853Z,99.99
2023-04-01T03:10:22.945Z,99.99
2023-04-01T03:11:22.746Z,99.99
2023-04-01T03:12:23.357Z,99.99
2023-04-01T03:13:22.655Z,99.99
2023-04-01T03:14:22.617Z,99.99
2023-04-01T03:15:22.563Z,99.99
2023-04-01T03:16:22.831Z,99.99
2023-04-01T03:17:22.483Z,99.99
2023-04-01T03:18:22.790Z,99.99
2023-04-01T03:19:22.368Z,99.99
2023-04-01T03:20:22.601Z,99.99
2023-04-01T03:21:22.270Z,99.99
2023-04-01T03:22:22.406Z,99.99
2023-04-01T03:23:22.187Z,99.99
2023-04-01T03:24:23.346Z,99.99
2023-04-01T03:25:22.087Z,99.99
2023-04-01T03:26:22.334Z,99.99
2023-04-01T03:27:21.995Z,99.99
2023-04-01T03:28:22.243Z,99.99
2023-04-01T03:29:21.893Z,99.99
2023-04-01T03:30:22.157Z,99.99
2023-04-01T03:31:23.278Z,99.99
2023-04-01T03:32:22.099Z,99.99
2023-04-01T03:33:21.738Z,99.99
2023-04-01T03:34:21.778Z,99.99
2023-04-01T03:35:21.622Z,99.99
2023-04-01T03:36:21.571Z,99.99
2023-04-01T03:37:21.848Z,99.99
2023-04-01T03:38:21.609Z,99.99
2023-04-01T03:39:21.432Z,99.99
2023-04-01T03:40:21.511Z,99.99
2023-04-01T03:41:21.333Z,99.99
2023-04-01T03:42:21.283Z,99.99
2023-04-01T03:43:21.542Z,99.99
2023-04-01T03:44:21.190Z,99.99
2023-04-01T03:45:22.266Z,99.99
2023-04-01T03:46:21.238Z,99.22
2023-04-01T03:47:21.265Z,99.31
2023-04-01T03:48:21.001Z,99.60
2023-04-01T03:49:21.272Z,99.99
2023-04-01T03:50:20.910Z,99.36
2023-04-01T03:51:20.984Z,99.99
2023-04-01T03:52:20.838Z,99.99
2023-04-01T03:53:20.773Z,99.98
2023-04-01T03:54:20.731Z,99.99
2023-04-01T03:55:20.906Z,99.99
2023-04-01T03:56:20.631Z,99.99
2023-04-01T03:57:20.756Z,99.31
2023-04-01T03:58:20.554Z,99.31
2023-04-01T03:59:20.492Z,98.41
2023-04-01T04:00:20.741Z,98.08
2023-04-01T04:01:20.593Z,99.02
2023-04-01T04:02:20.678Z,99.31
2023-04-01T04:03:20.334Z,99.22
2023-04-01T04:04:20.590Z,99.99
2023-04-01T04:05:20.231Z,99.41
2023-04-01T04:06:20.382Z,99.41
2023-04-01T04:07:20.131Z,99.60
2023-04-01T04:08:20.599Z,99.31
2023-04-01T04:09:20.021Z,99.99
2023-04-01T04:10:19.977Z,99.99
2023-04-01T04:11:19.945Z,99.99
2023-04-01T04:12:20.013Z,99.99
2023-04-01T04:13:19.884Z,99.99
2023-04-01T04:14:20.028Z,99.99
2023-04-01T04:15:19.744Z,99.99
2023-04-01T04:16:19.738Z,99.99
2023-04-01T04:17:19.842Z,99.99
2023-04-01T04:18:19.610Z,99.99
2023-04-01T04:19:19.859Z,99.99
2023-04-01T04:20:19.715Z,99.99
2023-04-01T04:21:19.463Z,99.99
2023-04-01T04:22:19.413Z,99.99
2023-04-01T04:23:19.682Z,99.99
2023-04-01T04:24:19.321Z,99.99
2023-04-01T04:25:19.492Z,99.99
2023-04-01T04:26:19.247Z,99.99
2023-04-01T04:27:19.355Z,99.99
2023-04-01T04:28:19.159Z,99.99
2023-04-01T04:29:19.322Z,99.99
2023-04-01T04:30:19.042Z,99.99
2023-04-01T04:31:19.363Z,99.99
2023-04-01T04:32:18.986Z,99.99
2023-04-01T04:33:18.895Z,99.99
2023-04-01T04:34:19.154Z,99.99
2023-04-01T04:35:18.812Z,99.99
2023-04-01T04:36:18.991Z,99.99
2023-04-01T04:37:18.713Z,99.99
2023-04-01T04:38:19.033Z,99.99
2023-04-01T04:39:18.606Z,99.99
2023-04-01T04:40:18.696Z,99.99
2023-04-01T04:41:18.516Z,99.99
2023-04-01T04:42:18.694Z,99.99
2023-04-01T04:43:18.414Z,99.99
2023-04-01T04:44:18.527Z,99.99
2023-04-01T04:45:18.513Z,99.99
2023-04-01T04:46:18.324Z,99.99
2023-04-01T04:47:18.563Z,99.99
2023-04-01T04:48:18.180Z,99.99
2023-04-01T04:49:18.131Z,99.99
2023-04-01T04:50:18.104Z,99.99
2023-04-01T04:51:18.146Z,99.99
2023-04-01T04:52:18.016Z,99.99
2023-04-01T04:53:18.056Z,99.99
2023-04-01T04:54:17.893Z,99.99
2023-04-01T04:55:17.931Z,99.99
2023-04-01T04:56:17.804Z,99.99
2023-04-01T04:57:17.901Z,99.99
2023-04-01T04:58:17.712Z,99.99
2023-04-01T04:59:17.693Z,99.99
2023-04-01T05:00:17.614Z,99.99
2023-04-01T05:01:17.629Z,99.99
2023-04-01T05:02:17.627Z,99.99
2023-04-01T05:03:17.559Z,99.99
2023-04-01T05:04:17.532Z,99.99
2023-04-01T05:05:17.373Z,99.99
2023-04-01T05:06:17.329Z,99.99
2023-04-01T05:07:17.604Z,99.99
2023-04-01T05:08:17.345Z,99.99
2023-04-01T05:09:17.192Z,99.99
2023-04-01T05:10:17.366Z,99.99
2023-04-01T05:11:17.115Z,99.99
2023-04-01T05:12:17.046Z,99.99
2023-04-01T05:13:17.183Z,99.99
2023-04-01T05:14:17.037Z,99.99
2023-04-01T05:15:16.998Z,99.99
2023-04-01T05:16:16.901Z,99.99
2023-04-01T05:17:17.008Z,99.99
2023-04-01T05:18:16.760Z,99.99
2023-04-01T05:19:16.817Z,99.99
2023-04-01T05:20:16.667Z,99.99
2023-04-01T05:21:16.841Z,99.99
2023-04-01T05:22:16.570Z,99.99
2023-04-01T05:23:16.529Z,99.99
2023-04-01T05:24:16.659Z,99.99
2023-04-01T05:25:16.516Z,99.99
2023-04-01T05:26:16.462Z,99.99
2023-04-01T05:27:16.340Z,99.99
2023-04-01T05:28:16.471Z,99.99
2023-04-01T05:29:16.245Z,99.99
2023-04-01T05:30:16.282Z,99.99
2023-04-01T05:31:16.202Z,99.99
2023-04-01T05:32:16.502Z,99.99
2023-04-01T05:33:16.055Z,99.99
2023-04-01T05:34:16.012Z,99.99
2023-04-01T05:35:15.965Z,99.99
2023-04-01T05:36:16.209Z,99.99
2023-04-01T05:37:15.875Z,99.99
2023-04-01T05:38:15.930Z,99.99
2023-04-01T05:39:15.780Z,99.99
2023-04-01T05:40:15.726Z,99.99
2023-04-01T05:41:15.753Z,99.99
2023-04-01T05:42:15.804Z,99.99
2023-04-01T05:43:15.772Z,99.99
2023-04-01T05:44:15.543Z,99.99
2023-04-01T05:45:15.572Z,99.99
2023-04-01T05:46:15.552Z,99.99
2023-04-01T05:47:15.596Z,99.99
2023-04-01T05:48:15.393Z,99.99
2023-04-01T05:49:15.506Z,99.99
2023-04-01T05:50:15.258Z,99.99
2023-04-01T05:51:15.209Z,99.99
2023-04-01T05:52:15.164Z,99.99
2023-04-01T05:53:15.230Z,99.99
2023-04-01T05:54:15.281Z,99.99
2023-04-01T05:55:15.238Z,99.99
2023-04-01T05:56:14.980Z,99.99
2023-04-01T05:57:14.973Z,99.99
2023-04-01T05:58:14.895Z,99.99
2023-04-01T05:59:14.965Z,99.99
2023-04-01T06:04:05.480Z,99.99
2023-04-01T06:05:10.903Z,99.99
2023-04-01T06:05:54.942Z,99.99
2023-04-01T06:06:47.164Z,99.99
2023-04-01T06:07:47.021Z,99.99
2023-04-01T06:08:46.969Z,99.99
2023-04-01T06:09:47.091Z,99.99
2023-04-01T06:10:46.873Z,99.99
2023-04-01T06:11:48.023Z,99.99
2023-04-01T06:12:46.776Z,99.99
2023-04-01T06:13:46.808Z,99.99
2023-04-01T06:14:46.684Z,99.99
2023-04-01T06:15:46.924Z,99.99
2023-04-01T06:16:46.618Z,99.99
2023-04-01T06:17:46.981Z,99.99
2023-04-01T06:18:46.500Z,99.99
2023-04-01T06:19:46.445Z,99.99
2023-04-01T06:20:46.402Z,99.99
2023-04-01T06:21:46.564Z,99.99
2023-04-01T06:22:46.333Z,99.99
2023-04-01T06:23:46.403Z,99.99
2023-04-01T06:24:46.227Z,99.99
2023-04-01T06:25:46.276Z,99.99
2023-04-01T06:26:46.123Z,99.99
2023-04-01T06:27:46.399Z,99.99
2023-04-01T06:28:46.030Z,99.99
2023-04-01T06:29:46.310Z,99.99
2023-04-01T06:30:46.222Z,99.99
2023-04-01T06:31:45.928Z,99.99
2023-04-01T06:32:46.053Z,99.99
2023-04-01T06:33:45.797Z,99.99
2023-04-01T06:34:45.837Z,99.99
2023-04-01T06:35:45.957Z,99.99
2023-04-01T06:36:45.659Z,99.99
2023-04-01T06:37:45.690Z,99.99
2023-04-01T06:38:45.605Z,99.99
2023-04-01T06:39:45.687Z,99.99
2023-04-01T06:40:45.477Z,99.99
2023-04-01T06:41:45.475Z,99.99
2023-04-01T06:42:45.387Z,99.99
2023-04-01T06:43:46.419Z,99.99
2023-04-01T06:44:45.551Z,99.99
2023-04-01T06:45:45.454Z,99.99
2023-04-01T06:46:45.210Z,99.99
2023-04-01T06:47:45.667Z,99.99
2023-04-01T06:48:45.224Z,99.99
2023-04-01T06:49:45.054Z,99.99
2023-04-01T06:50:45.235Z,99.99
2023-04-01T06:51:45.154Z,99.99
2023-04-01T06:52:45.149Z,99.99
2023-04-01T06:53:44.876Z,99.99
2023-04-01T06:54:45.064Z,99.99
2023-04-01T06:55:44.771Z,99.99
2023-04-01T06:56:45.145Z,99.99
2023-04-01T06:57:44.677Z,99.99
2023-04-01T06:58:44.637Z,99.99
2023-04-01T06:59:44.594Z,99.99
2023-04-01T07:00:44.599Z,99.99
2023-04-01T07:01:44.714Z,99.99
2023-04-01T07:02:44.678Z,99.99
2023-04-01T07:03:44.396Z,99.99
2023-04-01T07:04:44.402Z,99.99
2023-04-01T07:05:44.300Z,99.99
2023-04-01T07:06:44.548Z,99.99
2023-04-01T07:07:44.221Z,99.99
2023-04-01T07:08:44.345Z,99.99
2023-04-01T07:09:44.159Z,99.99
2023-04-01T07:10:44.152Z,99.99
2023-04-01T07:11:44.017Z,99.99
2023-04-01T07:12:44.504Z,99.99
2023-04-01T07:13:43.930Z,99.99
2023-04-01T07:14:43.980Z,99.99
2023-04-01T07:15:45.010Z,99.99
2023-04-01T07:16:43.801Z,99.99
2023-04-01T07:17:43.984Z,99.99
2023-04-01T07:18:43.963Z,99.99
2023-04-01T07:19:43.705Z,99.99
2023-04-01T07:20:43.604Z,99.99
2023-04-01T07:21:43.584Z,99.99
2023-04-01T07:22:43.732Z,99.99
2023-04-01T07:23:43.463Z,99.99
2023-04-01T07:24:43.544Z,99.99
2023-04-01T07:25:43.361Z,99.99
2023-04-01T07:26:43.351Z,99.99
2023-04-01T07:27:43.417Z,99.99
2023-04-01T07:28:43.367Z,99.99
2023-04-01T07:29:43.176Z,99.99
2023-04-01T07:30:43.213Z,99.99
2023-04-01T07:31:43.097Z,99.99
2023-04-01T07:32:43.054Z,99.99
2023-04-01T07:33:42.993Z,99.99
2023-04-01T07:34:42.999Z,99.99
2023-04-01T07:35:42.917Z,99.99
2023-04-01T07:36:43.234Z,99.99
2023-04-01T07:37:42.811Z,99.99
2023-04-01T07:38:42.818Z,99.99
2023-04-01T07:39:42.721Z,99.99
2023-04-01T07:40:42.842Z,99.99
2023-04-01T07:41:42.626Z,99.99
2023-04-01T07:42:42.862Z,99.99
2023-04-01T07:43:42.534Z,99.99
2023-04-01T07:44:43.690Z,99.99
2023-04-01T07:45:42.618Z,99.99
2023-04-01T07:46:42.568Z,99.99
2023-04-01T07:47:42.376Z,99.99
2023-04-01T07:48:42.490Z,99.99
2023-04-01T07:49:42.501Z,99.99
2023-04-01T07:50:42.223Z,99.99
2023-04-01T07:51:42.320Z,99.99
2023-04-01T07:52:42.125Z,99.99
2023-04-01T07:53:42.146Z,99.99
2023-04-01T07:54:42.027Z,99.99
2023-04-01T07:55:41.974Z,99.99
2023-04-01T07:56:42.045Z,99.99
2023-04-01T07:57:41.994Z,99.99
2023-04-01T07:58:41.955Z,99.99
2023-04-01T07:59:41.796Z,99.99
2023-04-01T08:00:41.970Z,99.99
2023-04-01T08:01:41.702Z,99.99
2023-04-01T08:02:41.910Z,99.99
2023-04-01T08:03:41.881Z,99.99
2023-04-01T08:04:41.639Z,99.99
2023-04-01T08:05:42.225Z,99.99
2023-04-01T08:06:41.468Z,99.99
2023-04-01T08:07:41.426Z,99.99
2023-04-01T08:08:41.525Z,99.99
2023-04-01T08:09:41.469Z,99.99
2023-04-01T08:10:41.427Z,99.99
2023-04-01T08:11:43.521Z,99.99
2023-04-01T08:12:41.185Z,99.99
2023-04-01T08:13:41.142Z,99.99
2023-04-01T08:14:42.378Z,99.99
2023-04-01T08:15:41.054Z,99.99
2023-04-01T08:16:41.197Z,99.99
2023-04-01T08:17:40.984Z,99.99
2023-04-01T08:18:40.907Z,99.99
2023-04-01T08:19:40.862Z,99.99
2023-04-01T08:20:41.192Z,99.99
2023-04-01T08:21:40.765Z,99.99
2023-04-01T08:22:40.796Z,99.99
2023-04-01T08:23:40.677Z,99.99
2023-04-01T08:24:47.133Z,99.99
2023-04-01T08:25:40.610Z,99.99
2023-04-01T08:26:40.559Z,99.99
2023-04-01T08:27:40.628Z,99.99
2023-04-01T08:28:40.440Z,99.99
2023-04-01T08:29:40.843Z,99.99
2023-04-01T08:30:40.380Z,99.99
2023-04-01T08:31:40.473Z,99.99
2023-04-01T08:32:40.292Z,99.99
2023-04-01T08:33:40.460Z,99.99
2023-04-01T08:34:40.162Z,99.99
2023-04-01T08:35:40.515Z,99.99
2023-04-01T08:36:40.745Z,99.99
2023-04-01T08:37:40.291Z,99.99
2023-04-01T08:38:39.989Z,99.99
2023-04-01T08:39:40.220Z,99.99
2023-04-01T08:40:39.888Z,99.99
2023-04-01T08:41:39.833Z,99.99
2023-04-01T08:42:39.816Z,99.99
2023-04-01T08:43:39.818Z,99.99
2023-04-01T08:44:39.697Z,99.99
2023-04-01T08:45:39.856Z,99.99
2023-04-01T08:46:39.603Z,99.99
2023-04-01T08:47:39.607Z,99.99
2023-04-01T08:48:39.698Z,99.99
2023-04-01T08:49:40.684Z,99.99
2023-04-01T08:50:47.516Z,99.99
2023-04-01T08:51:48.551Z,99.99
2023-04-01T08:52:47.097Z,99.99
2023-04-01T08:53:39.487Z,99.99
2023-04-01T08:54:39.291Z,99.99
2023-04-01T08:55:39.330Z,99.99
2023-04-01T08:56:39.152Z,99.99
2023-04-01T08:57:39.318Z,99.99
2023-04-01T08:58:39.057Z,99.99
2023-04-01T08:59:39.123Z,99.99
2023-04-01T09:00:39.076Z,99.99
2023-04-01T09:01:40.167Z,99.99
2023-04-01T09:02:38.898Z,99.99
2023-04-01T09:03:38.998Z,99.99
2023-04-01T09:04:38.900Z,99.99
2023-04-01T09:05:38.754Z,99.99
2023-04-01T09:06:38.880Z,99.99
2023-04-01T09:07:38.634Z,99.99
2023-04-01T09:08:38.676Z,99.99
2023-04-01T09:09:38.554Z,99.99
2023-04-01T09:10:38.539Z,99.99
2023-04-01T09:11:39.581Z,99.99
2023-04-01T09:12:38.497Z,99.99
2023-04-01T09:13:38.502Z,99.99
2023-04-01T09:14:38.513Z,99.99
2023-04-01T09:15:38.295Z,99.99
2023-04-01T09:16:38.218Z,99.99
2023-04-01T09:17:38.443Z,99.99
2023-04-01T09:18:38.135Z,99.99
2023-04-01T09:19:38.446Z,99.99
2023-04-01T09:20:38.045Z,99.99
2023-04-01T09:21:38.001Z,99.99
2023-04-01T09:22:37.962Z,99.99
2023-04-01T09:23:38.091Z,99.99
2023-04-01T09:24:37.865Z,99.99
2023-04-01T09:25:38.086Z,99.99
2023-04-01T09:26:37.770Z,99.99
2023-04-01T09:27:37.732Z,99.46
2023-04-01T09:28:37.684Z,99.75
2023-04-01T09:29:38.735Z,99.99
2023-04-01T09:30:37.598Z,99.94
2023-04-01T09:31:37.979Z,99.99
2023-04-01T09:32:37.550Z,99.99
2023-04-01T09:33:37.460Z,99.94
2023-04-01T09:34:37.649Z,99.55
2023-04-01T09:35:37.382Z,99.99
2023-04-01T09:36:38.378Z,99.99
2023-04-01T09:37:37.280Z,99.99
2023-04-01T09:38:37.261Z,99.99
2023-04-01T09:39:37.188Z,99.99
2023-04-01T09:40:37.589Z,99.99
2023-04-01T09:41:37.096Z,99.99
2023-04-01T09:42:37.198Z,99.08
2023-04-01T09:43:37.000Z,98.08
2023-04-01T09:44:37.099Z,97.41
2023-04-01T09:45:36.928Z,97.41
2023-04-01T09:46:36.963Z,97.51
2023-04-01T09:47:36.841Z,98.41
2023-04-01T09:48:36.933Z,99.46
2023-04-01T09:49:36.739Z,99.55
2023-04-01T09:50:36.699Z,99.99
2023-04-01T09:51:36.648Z,99.18
2023-04-01T09:52:36.960Z,99.18
2023-04-01T09:53:36.579Z,99.99
2023-04-01T09:54:36.568Z,99.99
2023-04-01T09:55:36.464Z,99.99
2023-04-01T09:56:36.435Z,99.99
2023-04-01T09:57:36.407Z,99.99
2023-04-01T09:58:43.915Z,99.99
2023-04-01T09:59:36.548Z,98.79
2023-04-01T10:00:36.503Z,99.46
2023-04-01T10:01:36.323Z,97.99
2023-04-01T10:02:36.267Z,97.22
2023-04-01T10:03:36.115Z,98.36
2023-04-01T10:04:36.083Z,98.56
2023-04-01T10:05:36.409Z,99.70
2023-04-01T10:06:35.969Z,99.99
2023-04-01T10:07:36.138Z,98.56
2023-04-01T10:08:36.005Z,95.51
2023-04-01T10:09:35.954Z,95.41
2023-04-01T10:10:35.800Z,96.56
2023-04-01T10:11:35.967Z,97.22
2023-04-01T10:12:35.717Z,99.04
2023-04-01T10:13:35.655Z,97.51
2023-04-01T10:14:35.606Z,95.22
2023-04-01T10:15:36.089Z,98.27
2023-04-01T10:16:36.578Z,97.51
2023-04-01T10:17:35.626Z,95.70
2023-04-01T10:18:35.428Z,99.32
2023-04-01T10:19:35.386Z,99.80
2023-04-01T10:20:35.530Z,98.85
2023-04-01T10:21:35.582Z,99.32
2023-04-01T10:22:35.539Z,98.94
2023-04-01T10:23:35.201Z,99.99
2023-04-01T10:24:35.345Z,99.99
2023-04-01T10:25:35.304Z,99.99
2023-04-01T10:26:35.159Z,99.99
2023-04-01T10:27:35.054Z,99.99
2023-04-01T10:28:35.066Z,99.99
2023-04-01T10:29:34.929Z,99.99
2023-04-01T10:30:34.891Z,99.99
2023-04-01T10:31:34.865Z,99.99
2023-04-01T10:32:35.141Z,99.99
2023-04-01T10:33:34.747Z,99.99
2023-04-01T10:34:35.937Z,99.99
2023-04-01T10:35:34.927Z,99.99
2023-04-01T10:36:34.612Z,99.99
2023-04-01T10:37:34.565Z,99.99
2023-04-01T10:38:34.831Z,99.13
2023-04-01T10:39:34.487Z,98.85
2023-04-01T10:40:35.738Z,96.46
2023-04-01T10:41:34.385Z,96.80
2023-04-01T10:42:34.681Z,96.70
2023-04-01T10:43:34.296Z,96.70
2023-04-01T10:44:34.481Z,96.80
2023-04-01T10:45:34.483Z,97.61
2023-04-01T10:46:35.590Z,95.98
2023-04-01T10:47:34.422Z,97.99
2023-04-01T10:48:34.086Z,96.94
2023-04-01T10:49:34.189Z,96.84
2023-04-01T10:50:33.991Z,98.46
2023-04-01T10:51:34.105Z,99.13
2023-04-01T10:52:33.892Z,98.18
2023-04-01T10:53:34.171Z,97.89
2023-04-01T10:54:33.939Z,98.27
2023-04-01T10:55:33.960Z,94.74
2023-04-01T10:56:33.831Z,95.22
2023-04-01T10:57:33.900Z,94.84
2023-04-01T10:58:33.623Z,96.17
2023-04-01T10:59:33.656Z,96.84
2023-04-01T11:00:34.684Z,97.75
2023-04-01T11:01:33.575Z,99.08
2023-04-01T11:02:33.627Z,98.41
2023-04-01T11:03:33.519Z,99.99
2023-04-01T11:04:33.682Z,99.99
2023-04-01T11:05:33.581Z,99.99
2023-04-01T11:06:33.540Z,99.99
2023-04-01T11:07:33.219Z,99.99
2023-04-01T11:08:34.360Z,99.99
2023-04-01T11:09:33.130Z,99.99
2023-04-01T11:10:33.089Z,99.99
2023-04-01T11:11:34.364Z,99.99
2023-04-01T11:12:32.987Z,99.99
2023-04-01T11:13:33.257Z,99.99
2023-04-01T11:14:32.932Z,99.99
2023-04-01T11:15:32.950Z,99.99
2023-04-01T11:16:32.840Z,99.99
2023-04-01T11:17:34.094Z,99.99
2023-04-01T11:18:32.714Z,99.99
2023-04-01T11:19:32.982Z,99.60
2023-04-01T11:20:32.623Z,99.32
2023-04-01T11:21:32.587Z,96.94
2023-04-01T11:22:32.820Z,97.41
2023-04-01T11:23:32.493Z,95.70
2023-04-01T11:24:32.613Z,94.93
2023-04-01T11:25:32.580Z,96.56
2023-04-01T11:26:32.523Z,94.46
2023-04-01T11:27:32.314Z,93.36
2023-04-01T11:28:32.539Z,94.32
2023-04-01T11:29:34.550Z,94.03
2023-04-01T11:30:32.358Z,94.32
2023-04-01T11:31:32.152Z,94.12
2023-04-01T11:32:32.105Z,93.65
2023-04-01T11:33:32.043Z,92.12
2023-04-01T11:34:32.180Z,93.46
2023-04-01T11:35:40.183Z,94.60
2023-04-01T11:36:32.218Z,92.50
2023-04-01T11:37:31.867Z,92.60
2023-04-01T11:38:31.837Z,93.46
2023-04-01T11:39:31.777Z,92.60
2023-04-01T11:40:32.022Z,93.74
2023-04-01T11:41:32.086Z,92.03
2023-04-01T11:42:31.820Z,91.07
2023-04-01T11:43:42.712Z,91.46
2023-04-01T11:44:47.258Z,93.74
2023-04-01T11:45:39.293Z,94.70
2023-04-01T11:46:31.664Z,97.46
2023-04-01T11:47:31.491Z,93.93
2023-04-01T11:48:31.766Z,93.08
2023-04-01T11:49:31.571Z,93.74
2023-04-01T11:50:31.290Z,94.51
2023-04-01T11:51:31.373Z,96.32
2023-04-01T11:52:31.198Z,95.27
2023-04-01T11:53:31.185Z,95.17
2023-04-01T11:54:31.132Z,94.70
2023-04-01T11:55:31.165Z,95.17
2023-04-01T11:56:31.012Z,96.51
2023-04-01T11:57:31.320Z,98.65
2023-04-01T11:58:30.921Z,96.36
2023-04-01T11:59:31.232Z,98.85
2023-04-01T12:00:30.857Z,97.70
2023-04-01T12:01:30.790Z,97.32
2023-04-01T12:02:31.227Z,99.60
2023-04-01T12:03:30.815Z,99.99
2023-04-01T12:04:31.001Z,99.99
2023-04-01T12:05:30.848Z,98.22
2023-04-01T12:06:30.569Z,96.84
2023-04-01T12:07:30.521Z,93.22
2023-04-01T12:08:30.699Z,91.16
2023-04-01T12:09:30.752Z,89.83
2023-04-01T12:10:30.697Z,90.02
2023-04-01T12:11:30.356Z,88.59
2023-04-01T12:12:30.299Z,85.82
2023-04-01T12:13:30.257Z,85.25
2023-04-01T12:14:30.529Z,85.96
2023-04-01T12:15:30.222Z,86.91
2023-04-01T12:16:30.283Z,85.38
2023-04-01T12:17:30.147Z,83.42
2023-04-01T12:18:30.035Z,82.37
2023-04-01T12:19:30.154Z,81.03
2023-04-01T12:20:29.956Z,79.60
2023-04-01T12:21:31.395Z,78.83
2023-04-01T12:22:31.276Z,78.07
2023-04-01T12:23:29.827Z,78.45
2023-04-01T12:24:29.791Z,78.16
2023-04-01T12:25:29.992Z,75.91
2023-04-01T12:26:29.698Z,77.34
2023-04-01T12:27:30.010Z,75.91
2023-04-01T12:28:29.614Z,76.00
2023-04-01T12:29:29.586Z,75.59
2023-04-01T12:30:29.831Z,77.21
2023-04-01T12:31:29.506Z,77.15
2023-04-01T12:32:29.924Z,76.77
2023-04-01T12:33:29.646Z,74.66
2023-04-01T12:34:29.370Z,73.99
2023-04-01T12:35:29.327Z,75.24
2023-04-01T12:36:29.360Z,75.14
2023-04-01T12:37:30.445Z,73.43
2023-04-01T12:38:29.366Z,72.56
2023-04-01T12:39:29.153Z,73.14
2023-04-01T12:40:29.120Z,72.18
2023-04-01T12:41:29.057Z,72.08
2023-04-01T12:42:31.042Z,72.18
2023-04-01T12:43:28.980Z,71.86
2023-04-01T12:44:29.020Z,73.71
2023-04-01T12:45:28.911Z,73.52
2023-04-01T12:46:29.065Z,72.94
2023-04-01T12:47:28.815Z,71.67
2023-04-01T12:48:28.929Z,71.86
2023-04-01T12:49:28.721Z,70.61
2023-04-01T12:50:28.883Z,71.67
2023-04-01T12:51:28.639Z,71.34
2023-04-01T12:52:28.600Z,72.01
2023-04-01T12:53:28.768Z,73.25
2023-04-01T12:54:28.524Z,72.62
2023-04-01T12:55:28.573Z,72.24